sensor_id;sensor_type;location;lat;lon;timestamp;P1;durP1;ratioP1;P2;durP2;ratioP2
29314;SDS011;16320;53.954;9.506;2023-07-09T00:00:41;5.10;;;2.88;;
29314;SDS011;16320;53.954;9.506;2023-07-09T00:03:46;4.72;;;2.92;;
29314;SDS011;16320;53.954;9.506;2023-07-09T00:06:56;11.07;;;3.13;;
29314;SDS011;16320;53.954;9.506;2023-07-09T00:10:17;8.15;;;2.90;;
29314;SDS011;16320;53.954;9.506;2023-07-09T00:13:25;7.97;;;3.30;;
29314;SDS011;16320;53.954;9.506;2023-07-09T00:16:31;5.13;;;2.90;;
29314;SDS011;16320;53.954;9.506;2023-07-09T00:19:36;4.35;;;3.28;;
29314;SDS011;16320;53.954;9.506;2023-07-09T00:22:41;5.43;;;3.20;;
29314;SDS011;16320;53.954;9.506;2023-07-09T00:25:52;4.97;;;2.92;;
29314;SDS011;16320;53.954;9.506;2023-07-09T00:28:56;4.88;;;2.90;;
29314;SDS011;16320;53.954;9.506;2023-07-09T00:32:04;3.03;;;2.45;;
29314;SDS011;16320;53.954;9.506;2023-07-09T00:35:16;9.20;;;2.85;;
29314;SDS011;16320;53.954;9.506;2023-07-09T00:38:21;6.78;;;2.90;;
29314;SDS011;16320;53.954;9.506;2023-07-09T00:41:27;8.27;;;2.67;;
29314;SDS011;16320;53.954;9.506;2023-07-09T00:44:33;4.93;;;3.05;;
29314;SDS011;16320;53.954;9.506;2023-07-09T00:51:11;5.03;;;2.67;;
29314;SDS011;16320;53.954;9.506;2023-07-09T00:54:22;6.80;;;2.95;;
29314;SDS011;16320;53.954;9.506;2023-07-09T00:57:34;2.97;;;2.60;;
29314;SDS011;16320;53.954;9.506;2023-07-09T01:00:46;4.63;;;3.25;;
29314;SDS011;16320;53.954;9.506;2023-07-09T01:03:57;5.57;;;3.35;;
29314;SDS011;16320;53.954;9.506;2023-07-09T01:07:03;5.43;;;2.83;;
29314;SDS011;16320;53.954;9.506;2023-07-09T01:10:08;3.60;;;2.75;;
29314;SDS011;16320;53.954;9.506;2023-07-09T01:13:13;4.53;;;3.08;;
29314;SDS011;16320;53.954;9.506;2023-07-09T01:16:20;5.15;;;3.10;;
29314;SDS011;16320;53.954;9.506;2023-07-09T01:19:36;6.55;;;3.08;;
29314;SDS011;16320;53.954;9.506;2023-07-09T01:22:48;5.82;;;3.13;;
29314;SDS011;16320;53.954;9.506;2023-07-09T01:25:54;4.88;;;3.00;;
29314;SDS011;16320;53.954;9.506;2023-07-09T01:28:59;7.60;;;3.20;;
29314;SDS011;16320;53.954;9.506;2023-07-09T01:32:05;8.35;;;3.17;;
29314;SDS011;16320;53.954;9.506;2023-07-09T01:35:13;9.02;;;3.67;;
29314;SDS011;16320;53.954;9.506;2023-07-09T01:38:21;6.45;;;2.70;;
29314;SDS011;16320;53.954;9.506;2023-07-09T01:41:26;9.40;;;3.17;;
29314;SDS011;16320;53.954;9.506;2023-07-09T01:44:30;4.68;;;2.80;;
29314;SDS011;16320;53.954;9.506;2023-07-09T01:47:36;9.52;;;3.50;;
29314;SDS011;16320;53.954;9.506;2023-07-09T01:50:44;7.97;;;3.05;;
29314;SDS011;16320;53.954;9.506;2023-07-09T01:53:48;5.32;;;2.90;;
29314;SDS011;16320;53.954;9.506;2023-07-09T01:56:53;4.78;;;2.88;;
29314;SDS011;16320;53.954;9.506;2023-07-09T02:00:06;8.18;;;3.05;;
29314;SDS011;16320;53.954;9.506;2023-07-09T02:03:14;6.40;;;2.80;;
29314;SDS011;16320;53.954;9.506;2023-07-09T02:06:21;6.50;;;3.40;;
29314;SDS011;16320;53.954;9.506;2023-07-09T02:09:28;4.97;;;3.22;;
29314;SDS011;16320;53.954;9.506;2023-07-09T02:12:32;4.25;;;2.80;;
29314;SDS011;16320;53.954;9.506;2023-07-09T02:15:37;6.28;;;2.80;;
29314;SDS011;16320;53.954;9.506;2023-07-09T02:18:47;3.55;;;2.33;;
29314;SDS011;16320;53.954;9.506;2023-07-09T02:21:51;8.70;;;3.30;;
29314;SDS011;16320;53.954;9.506;2023-07-09T02:24:55;5.60;;;2.90;;
29314;SDS011;16320;53.954;9.506;2023-07-09T02:28:00;5.13;;;2.75;;
29314;SDS011;16320;53.954;9.506;2023-07-09T02:31:05;6.07;;;2.83;;
29314;SDS011;16320;53.954;9.506;2023-07-09T02:34:11;5.68;;;2.97;;
29314;SDS011;16320;53.954;9.506;2023-07-09T02:37:16;3.40;;;2.70;;
29314;SDS011;16320;53.954;9.506;2023-07-09T02:40:22;5.70;;;3.35;;
29314;SDS011;16320;53.954;9.506;2023-07-09T02:43:26;5.18;;;2.85;;
29314;SDS011;16320;53.954;9.506;2023-07-09T02:46:34;5.85;;;3.10;;
29314;SDS011;16320;53.954;9.506;2023-07-09T02:49:39;3.95;;;2.83;;
29314;SDS011;16320;53.954;9.506;2023-07-09T02:52:45;5.38;;;2.85;;
29314;SDS011;16320;53.954;9.506;2023-07-09T02:55:49;3.53;;;2.78;;
29314;SDS011;16320;53.954;9.506;2023-07-09T02:58:53;5.22;;;2.72;;
29314;SDS011;16320;53.954;9.506;2023-07-09T03:01:59;6.38;;;2.65;;
29314;SDS011;16320;53.954;9.506;2023-07-09T03:05:04;4.53;;;2.55;;
29314;SDS011;16320;53.954;9.506;2023-07-09T03:08:09;4.20;;;2.97;;
29314;SDS011;16320;53.954;9.506;2023-07-09T03:11:14;4.50;;;2.65;;
29314;SDS011;16320;53.954;9.506;2023-07-09T03:14:19;3.08;;;2.35;;
29314;SDS011;16320;53.954;9.506;2023-07-09T03:17:24;8.43;;;2.70;;
29314;SDS011;16320;53.954;9.506;2023-07-09T03:20:29;5.97;;;3.10;;
29314;SDS011;16320;53.954;9.506;2023-07-09T03:23:34;5.03;;;2.75;;
29314;SDS011;16320;53.954;9.506;2023-07-09T03:26:38;4.93;;;2.78;;
29314;SDS011;16320;53.954;9.506;2023-07-09T03:29:42;4.25;;;2.75;;
29314;SDS011;16320;53.954;9.506;2023-07-09T03:32:47;9.27;;;2.60;;
29314;SDS011;16320;53.954;9.506;2023-07-09T03:35:52;3.40;;;2.55;;
29314;SDS011;16320;53.954;9.506;2023-07-09T03:38:57;5.53;;;2.88;;
29314;SDS011;16320;53.954;9.506;2023-07-09T03:42:02;3.88;;;2.50;;
29314;SDS011;16320;53.954;9.506;2023-07-09T03:45:07;3.85;;;2.67;;
29314;SDS011;16320;53.954;9.506;2023-07-09T03:48:13;4.38;;;2.40;;
29314;SDS011;16320;53.954;9.506;2023-07-09T03:51:19;8.63;;;2.72;;
29314;SDS011;16320;53.954;9.506;2023-07-09T03:54:24;5.55;;;2.72;;
29314;SDS011;16320;53.954;9.506;2023-07-09T03:57:30;6.03;;;2.40;;
29314;SDS011;16320;53.954;9.506;2023-07-09T04:00:35;3.22;;;2.55;;
29314;SDS011;16320;53.954;9.506;2023-07-09T04:06:43;5.20;;;2.58;;
29314;SDS011;16320;53.954;9.506;2023-07-09T04:09:48;6.75;;;2.50;;
29314;SDS011;16320;53.954;9.506;2023-07-09T04:12:53;4.10;;;2.78;;
29314;SDS011;16320;53.954;9.506;2023-07-09T04:15:58;2.78;;;2.15;;
29314;SDS011;16320;53.954;9.506;2023-07-09T04:19:03;3.53;;;2.30;;
29314;SDS011;16320;53.954;9.506;2023-07-09T04:22:08;3.58;;;2.50;;
29314;SDS011;16320;53.954;9.506;2023-07-09T04:25:15;5.68;;;2.63;;
29314;SDS011;16320;53.954;9.506;2023-07-09T04:28:19;8.75;;;2.63;;
29314;SDS011;16320;53.954;9.506;2023-07-09T04:31:24;5.25;;;2.30;;
29314;SDS011;16320;53.954;9.506;2023-07-09T04:34:29;5.28;;;3.13;;
29314;SDS011;16320;53.954;9.506;2023-07-09T04:37:33;4.80;;;2.70;;
29314;SDS011;16320;53.954;9.506;2023-07-09T04:40:38;6.03;;;3.00;;
29314;SDS011;16320;53.954;9.506;2023-07-09T04:43:43;5.75;;;2.42;;
29314;SDS011;16320;53.954;9.506;2023-07-09T04:46:48;5.43;;;2.78;;
29314;SDS011;16320;53.954;9.506;2023-07-09T04:49:53;3.60;;;2.88;;
29314;SDS011;16320;53.954;9.506;2023-07-09T04:52:58;3.15;;;2.42;;
29314;SDS011;16320;53.954;9.506;2023-07-09T04:56:03;5.60;;;2.60;;
29314;SDS011;16320;53.954;9.506;2023-07-09T04:59:13;3.65;;;2.78;;
29314;SDS011;16320;53.954;9.506;2023-07-09T05:02:24;5.72;;;3.35;;
29314;SDS011;16320;53.954;9.506;2023-07-09T05:05:28;9.30;;;2.70;;
29314;SDS011;16320;53.954;9.506;2023-07-09T05:08:32;4.28;;;2.78;;
29314;SDS011;16320;53.954;9.506;2023-07-09T05:11:37;2.97;;;2.38;;
29314;SDS011;16320;53.954;9.506;2023-07-09T05:14:42;4.47;;;2.90;;
29314;SDS011;16320;53.954;9.506;2023-07-09T05:17:47;5.05;;;2.65;;
29314;SDS011;16320;53.954;9.506;2023-07-09T05:20:52;5.43;;;2.65;;
29314;SDS011;16320;53.954;9.506;2023-07-09T05:23:56;5.60;;;2.83;;
29314;SDS011;16320;53.954;9.506;2023-07-09T05:27:00;3.97;;;3.00;;
29314;SDS011;16320;53.954;9.506;2023-07-09T05:30:05;3.92;;;2.28;;
29314;SDS011;16320;53.954;9.506;2023-07-09T05:33:13;3.70;;;2.70;;
29314;SDS011;16320;53.954;9.506;2023-07-09T05:36:18;4.85;;;3.05;;
29314;SDS011;16320;53.954;9.506;2023-07-09T05:39:23;9.07;;;2.75;;
29314;SDS011;16320;53.954;9.506;2023-07-09T05:42:27;6.00;;;2.70;;
29314;SDS011;16320;53.954;9.506;2023-07-09T05:45:32;5.05;;;2.88;;
29314;SDS011;16320;53.954;9.506;2023-07-09T05:48:37;4.60;;;2.78;;
29314;SDS011;16320;53.954;9.506;2023-07-09T05:51:42;3.58;;;2.80;;
29314;SDS011;16320;53.954;9.506;2023-07-09T05:54:48;7.53;;;2.80;;
29314;SDS011;16320;53.954;9.506;2023-07-09T05:57:57;7.45;;;2.83;;
29314;SDS011;16320;53.954;9.506;2023-07-09T06:01:01;5.28;;;3.00;;
29314;SDS011;16320;53.954;9.506;2023-07-09T06:04:06;11.25;;;2.92;;
29314;SDS011;16320;53.954;9.506;2023-07-09T06:07:11;4.97;;;2.80;;
29314;SDS011;16320;53.954;9.506;2023-07-09T06:10:17;4.78;;;2.70;;
29314;SDS011;16320;53.954;9.506;2023-07-09T06:13:22;6.88;;;2.88;;
29314;SDS011;16320;53.954;9.506;2023-07-09T06:16:28;4.15;;;2.40;;
29314;SDS011;16320;53.954;9.506;2023-07-09T06:19:33;8.35;;;2.63;;
29314;SDS011;16320;53.954;9.506;2023-07-09T06:22:38;3.60;;;2.70;;
29314;SDS011;16320;53.954;9.506;2023-07-09T06:25:43;8.10;;;3.13;;
29314;SDS011;16320;53.954;9.506;2023-07-09T06:28:51;5.45;;;2.92;;
29314;SDS011;16320;53.954;9.506;2023-07-09T06:31:57;4.97;;;2.67;;
29314;SDS011;16320;53.954;9.506;2023-07-09T06:35:01;5.07;;;2.70;;
29314;SDS011;16320;53.954;9.506;2023-07-09T06:38:06;4.80;;;3.10;;
29314;SDS011;16320;53.954;9.506;2023-07-09T06:41:11;4.10;;;2.90;;
29314;SDS011;16320;53.954;9.506;2023-07-09T06:44:18;3.70;;;3.00;;
29314;SDS011;16320;53.954;9.506;2023-07-09T06:47:23;6.55;;;3.10;;
29314;SDS011;16320;53.954;9.506;2023-07-09T06:50:27;5.10;;;2.70;;
29314;SDS011;16320;53.954;9.506;2023-07-09T06:53:32;8.00;;;3.40;;
29314;SDS011;16320;53.954;9.506;2023-07-09T06:56:37;5.45;;;2.92;;
29314;SDS011;16320;53.954;9.506;2023-07-09T06:59:41;6.82;;;2.97;;
29314;SDS011;16320;53.954;9.506;2023-07-09T07:02:46;4.97;;;2.83;;
29314;SDS011;16320;53.954;9.506;2023-07-09T07:05:52;4.40;;;2.67;;
29314;SDS011;16320;53.954;9.506;2023-07-09T07:08:57;6.65;;;3.05;;
29314;SDS011;16320;53.954;9.506;2023-07-09T07:12:01;4.65;;;2.83;;
29314;SDS011;16320;53.954;9.506;2023-07-09T07:15:07;3.75;;;3.05;;
29314;SDS011;16320;53.954;9.506;2023-07-09T07:18:12;3.72;;;2.75;;
29314;SDS011;16320;53.954;9.506;2023-07-09T07:21:17;6.70;;;2.83;;
29314;SDS011;16320;53.954;9.506;2023-07-09T07:24:22;5.03;;;2.92;;
29314;SDS011;16320;53.954;9.506;2023-07-09T07:27:27;7.65;;;2.95;;
29314;SDS011;16320;53.954;9.506;2023-07-09T07:30:32;5.03;;;2.95;;
29314;SDS011;16320;53.954;9.506;2023-07-09T07:33:38;6.25;;;2.88;;
29314;SDS011;16320;53.954;9.506;2023-07-09T07:36:45;5.03;;;2.97;;
29314;SDS011;16320;53.954;9.506;2023-07-09T07:39:50;4.13;;;2.42;;
29314;SDS011;16320;53.954;9.506;2023-07-09T07:42:54;4.40;;;2.97;;
29314;SDS011;16320;53.954;9.506;2023-07-09T07:45:59;5.43;;;2.45;;
29314;SDS011;16320;53.954;9.506;2023-07-09T07:49:05;3.83;;;2.70;;
29314;SDS011;16320;53.954;9.506;2023-07-09T07:52:10;5.57;;;2.90;;
29314;SDS011;16320;53.954;9.506;2023-07-09T07:55:14;3.78;;;3.00;;
29314;SDS011;16320;53.954;9.506;2023-07-09T07:58:22;4.00;;;3.13;;
29314;SDS011;16320;53.954;9.506;2023-07-09T08:01:27;4.25;;;2.75;;
29314;SDS011;16320;53.954;9.506;2023-07-09T08:04:32;5.75;;;3.22;;
29314;SDS011;16320;53.954;9.506;2023-07-09T08:07:36;6.70;;;2.85;;
29314;SDS011;16320;53.954;9.506;2023-07-09T08:10:41;5.25;;;2.80;;
29314;SDS011;16320;53.954;9.506;2023-07-09T08:13:46;4.50;;;3.58;;
29314;SDS011;16320;53.954;9.506;2023-07-09T08:16:51;4.72;;;3.13;;
29314;SDS011;16320;53.954;9.506;2023-07-09T08:19:56;7.85;;;3.15;;
29314;SDS011;16320;53.954;9.506;2023-07-09T08:23:00;8.68;;;3.13;;
29314;SDS011;16320;53.954;9.506;2023-07-09T08:26:05;5.85;;;3.03;;
29314;SDS011;16320;53.954;9.506;2023-07-09T08:29:10;4.07;;;2.72;;
29314;SDS011;16320;53.954;9.506;2023-07-09T08:32:14;6.78;;;3.28;;
29314;SDS011;16320;53.954;9.506;2023-07-09T08:35:19;4.03;;;2.88;;
29314;SDS011;16320;53.954;9.506;2023-07-09T08:38:26;9.85;;;3.30;;
29314;SDS011;16320;53.954;9.506;2023-07-09T08:41:39;8.15;;;3.80;;
29314;SDS011;16320;53.954;9.506;2023-07-09T08:48:29;3.58;;;2.72;;
29314;SDS011;16320;53.954;9.506;2023-07-09T08:51:38;9.85;;;3.17;;
29314;SDS011;16320;53.954;9.506;2023-07-09T08:54:46;6.65;;;2.88;;
29314;SDS011;16320;53.954;9.506;2023-07-09T08:58:03;3.70;;;3.00;;
29314;SDS011;16320;53.954;9.506;2023-07-09T09:01:35;5.88;;;3.10;;
29314;SDS011;16320;53.954;9.506;2023-07-09T09:04:46;5.00;;;2.97;;
29314;SDS011;16320;53.954;9.506;2023-07-09T09:08:26;6.63;;;3.22;;
29314;SDS011;16320;53.954;9.506;2023-07-09T09:11:44;8.75;;;3.30;;
29314;SDS011;16320;53.954;9.506;2023-07-09T09:21:34;4.72;;;3.33;;
29314;SDS011;16320;53.954;9.506;2023-07-09T09:24:51;6.53;;;3.97;;
29314;SDS011;16320;53.954;9.506;2023-07-09T09:28:08;4.10;;;3.30;;
29314;SDS011;16320;53.954;9.506;2023-07-09T09:31:13;4.28;;;3.33;;
29314;SDS011;16320;53.954;9.506;2023-07-09T09:34:24;6.38;;;3.80;;
29314;SDS011;16320;53.954;9.506;2023-07-09T09:37:32;4.57;;;3.38;;
29314;SDS011;16320;53.954;9.506;2023-07-09T09:40:37;5.10;;;3.20;;
29314;SDS011;16320;53.954;9.506;2023-07-09T09:43:44;4.90;;;3.38;;
29314;SDS011;16320;53.954;9.506;2023-07-09T09:46:50;5.85;;;3.55;;
29314;SDS011;16320;53.954;9.506;2023-07-09T09:49:54;4.30;;;3.15;;
29314;SDS011;16320;53.954;9.506;2023-07-09T09:52:59;5.82;;;3.28;;
29314;SDS011;16320;53.954;9.506;2023-07-09T09:56:06;4.57;;;3.15;;
29314;SDS011;16320;53.954;9.506;2023-07-09T09:59:25;3.00;;;2.70;;
29314;SDS011;16320;53.954;9.506;2023-07-09T10:02:38;3.58;;;3.08;;
29314;SDS011;16320;53.954;9.506;2023-07-09T10:05:51;5.05;;;3.45;;
29314;SDS011;16320;53.954;9.506;2023-07-09T10:09:04;4.55;;;3.20;;
29314;SDS011;16320;53.954;9.506;2023-07-09T10:19:12;5.35;;;2.67;;
29314;SDS011;16320;53.954;9.506;2023-07-09T10:22:45;4.85;;;3.20;;
29314;SDS011;16320;53.954;9.506;2023-07-09T10:26:23;4.95;;;3.25;;
29314;SDS011;16320;53.954;9.506;2023-07-09T10:32:53;5.60;;;3.28;;
29314;SDS011;16320;53.954;9.506;2023-07-09T10:36:21;5.57;;;3.20;;
29314;SDS011;16320;53.954;9.506;2023-07-09T10:40:08;4.88;;;3.13;;
29314;SDS011;16320;53.954;9.506;2023-07-09T10:43:41;4.63;;;3.15;;
29314;SDS011;16320;53.954;9.506;2023-07-09T10:46:59;5.63;;;3.80;;
29314;SDS011;16320;53.954;9.506;2023-07-09T10:50:24;5.40;;;3.60;;
29314;SDS011;16320;53.954;9.506;2023-07-09T10:53:36;4.53;;;3.15;;
29314;SDS011;16320;53.954;9.506;2023-07-09T10:57:04;5.15;;;3.53;;
29314;SDS011;16320;53.954;9.506;2023-07-09T11:00:27;5.90;;;3.30;;
29314;SDS011;16320;53.954;9.506;2023-07-09T11:03:54;5.00;;;3.25;;
29314;SDS011;16320;53.954;9.506;2023-07-09T11:07:06;5.65;;;3.03;;
29314;SDS011;16320;53.954;9.506;2023-07-09T11:16:55;6.20;;;3.13;;
29314;SDS011;16320;53.954;9.506;2023-07-09T11:20:06;4.32;;;3.47;;
29314;SDS011;16320;53.954;9.506;2023-07-09T11:23:22;3.60;;;3.03;;
29314;SDS011;16320;53.954;9.506;2023-07-09T11:26:33;3.22;;;2.92;;
29314;SDS011;16320;53.954;9.506;2023-07-09T11:29:45;6.55;;;3.75;;
29314;SDS011;16320;53.954;9.506;2023-07-09T11:32:53;4.88;;;3.05;;
29314;SDS011;16320;53.954;9.506;2023-07-09T11:36:27;4.68;;;3.50;;
29314;SDS011;16320;53.954;9.506;2023-07-09T11:42:48;4.75;;;3.30;;
29314;SDS011;16320;53.954;9.506;2023-07-09T11:46:06;4.18;;;3.20;;
29314;SDS011;16320;53.954;9.506;2023-07-09T11:49:18;4.63;;;3.55;;
29314;SDS011;16320;53.954;9.506;2023-07-09T11:55:45;4.88;;;3.47;;
29314;SDS011;16320;53.954;9.506;2023-07-09T11:58:52;4.20;;;3.40;;
29314;SDS011;16320;53.954;9.506;2023-07-09T12:01:59;6.85;;;4.03;;
29314;SDS011;16320;53.954;9.506;2023-07-09T12:05:05;10.23;;;3.47;;
29314;SDS011;16320;53.954;9.506;2023-07-09T12:08:11;4.20;;;3.75;;
29314;SDS011;16320;53.954;9.506;2023-07-09T12:11:21;3.97;;;3.15;;
29314;SDS011;16320;53.954;9.506;2023-07-09T12:14:31;5.18;;;4.03;;
29314;SDS011;16320;53.954;9.506;2023-07-09T12:17:36;4.32;;;3.70;;
29314;SDS011;16320;53.954;9.506;2023-07-09T12:20:41;5.93;;;4.20;;
29314;SDS011;16320;53.954;9.506;2023-07-09T12:23:54;5.35;;;3.90;;
29314;SDS011;16320;53.954;9.506;2023-07-09T12:27:00;4.93;;;3.72;;
29314;SDS011;16320;53.954;9.506;2023-07-09T12:30:12;7.45;;;3.45;;
29314;SDS011;16320;53.954;9.506;2023-07-09T12:33:19;4.97;;;4.03;;
29314;SDS011;16320;53.954;9.506;2023-07-09T12:36:30;4.75;;;4.03;;
29314;SDS011;16320;53.954;9.506;2023-07-09T12:39:35;5.45;;;3.80;;
29314;SDS011;16320;53.954;9.506;2023-07-09T12:42:41;6.13;;;4.38;;
29314;SDS011;16320;53.954;9.506;2023-07-09T12:45:47;5.00;;;4.50;;
29314;SDS011;16320;53.954;9.506;2023-07-09T12:48:52;4.40;;;3.97;;
29314;SDS011;16320;53.954;9.506;2023-07-09T12:52:00;6.22;;;3.85;;
29314;SDS011;16320;53.954;9.506;2023-07-09T12:55:19;4.75;;;4.10;;
29314;SDS011;16320;53.954;9.506;2023-07-09T12:58:30;4.50;;;3.83;;
29314;SDS011;16320;53.954;9.506;2023-07-09T13:01:40;9.02;;;3.72;;
29314;SDS011;16320;53.954;9.506;2023-07-09T13:04:45;8.35;;;4.32;;
29314;SDS011;16320;53.954;9.506;2023-07-09T13:07:52;6.07;;;4.22;;
29314;SDS011;16320;53.954;9.506;2023-07-09T13:11:02;5.10;;;4.32;;
29314;SDS011;16320;53.954;9.506;2023-07-09T13:14:24;4.88;;;4.00;;
29314;SDS011;16320;53.954;9.506;2023-07-09T13:17:33;6.68;;;4.22;;
29314;SDS011;16320;53.954;9.506;2023-07-09T13:20:38;5.07;;;4.35;;
29314;SDS011;16320;53.954;9.506;2023-07-09T13:23:52;4.55;;;3.92;;
29314;SDS011;16320;53.954;9.506;2023-07-09T13:26:57;6.82;;;4.60;;
29314;SDS011;16320;53.954;9.506;2023-07-09T13:30:03;6.30;;;4.45;;
29314;SDS011;16320;53.954;9.506;2023-07-09T13:33:08;7.32;;;4.30;;
29314;SDS011;16320;53.954;9.506;2023-07-09T13:36:14;8.30;;;4.45;;
29314;SDS011;16320;53.954;9.506;2023-07-09T13:39:19;6.15;;;4.50;;
29314;SDS011;16320;53.954;9.506;2023-07-09T13:42:25;5.28;;;4.15;;
29314;SDS011;16320;53.954;9.506;2023-07-09T13:45:30;4.55;;;3.85;;
29314;SDS011;16320;53.954;9.506;2023-07-09T13:48:36;5.38;;;4.40;;
29314;SDS011;16320;53.954;9.506;2023-07-09T13:51:44;5.97;;;4.35;;
29314;SDS011;16320;53.954;9.506;2023-07-09T13:54:51;5.65;;;4.40;;
29314;SDS011;16320;53.954;9.506;2023-07-09T13:57:55;7.43;;;4.20;;
29314;SDS011;16320;53.954;9.506;2023-07-09T14:01:05;5.03;;;4.25;;
29314;SDS011;16320;53.954;9.506;2023-07-09T14:04:19;7.22;;;4.53;;
29314;SDS011;16320;53.954;9.506;2023-07-09T14:10:39;6.93;;;4.53;;
29314;SDS011;16320;53.954;9.506;2023-07-09T14:13:44;7.63;;;4.97;;
29314;SDS011;16320;53.954;9.506;2023-07-09T14:16:49;8.90;;;4.63;;
29314;SDS011;16320;53.954;9.506;2023-07-09T14:19:55;5.13;;;4.20;;
29314;SDS011;16320;53.954;9.506;2023-07-09T14:23:02;5.72;;;4.38;;
29314;SDS011;16320;53.954;9.506;2023-07-09T14:26:08;8.05;;;5.05;;
29314;SDS011;16320;53.954;9.506;2023-07-09T14:29:15;5.15;;;4.10;;
29314;SDS011;16320;53.954;9.506;2023-07-09T14:32:29;6.68;;;4.90;;
29314;SDS011;16320;53.954;9.506;2023-07-09T14:35:42;5.43;;;4.60;;
29314;SDS011;16320;53.954;9.506;2023-07-09T14:38:49;5.85;;;4.00;;
29314;SDS011;16320;53.954;9.506;2023-07-09T14:41:54;6.72;;;4.63;;
29314;SDS011;16320;53.954;9.506;2023-07-09T14:44:59;5.97;;;4.07;;
29314;SDS011;16320;53.954;9.506;2023-07-09T14:48:17;6.25;;;4.65;;
29314;SDS011;16320;53.954;9.506;2023-07-09T14:51:23;6.25;;;4.25;;
29314;SDS011;16320;53.954;9.506;2023-07-09T14:54:29;5.95;;;4.72;;
29314;SDS011;16320;53.954;9.506;2023-07-09T14:57:34;4.93;;;4.28;;
29314;SDS011;16320;53.954;9.506;2023-07-09T15:00:39;6.25;;;4.28;;
29314;SDS011;16320;53.954;9.506;2023-07-09T15:03:45;7.35;;;4.40;;
29314;SDS011;16320;53.954;9.506;2023-07-09T15:06:50;7.25;;;4.85;;
29314;SDS011;16320;53.954;9.506;2023-07-09T15:09:57;8.60;;;6.15;;
29314;SDS011;16320;53.954;9.506;2023-07-09T15:13:03;7.47;;;4.80;;
29314;SDS011;16320;53.954;9.506;2023-07-09T15:16:08;6.78;;;5.05;;
29314;SDS011;16320;53.954;9.506;2023-07-09T15:19:13;7.38;;;4.57;;
29314;SDS011;16320;53.954;9.506;2023-07-09T15:22:26;6.60;;;4.88;;
29314;SDS011;16320;53.954;9.506;2023-07-09T15:25:36;6.65;;;5.07;;
29314;SDS011;16320;53.954;9.506;2023-07-09T15:28:40;6.22;;;4.35;;
29314;SDS011;16320;53.954;9.506;2023-07-09T15:31:46;5.60;;;4.00;;
29314;SDS011;16320;53.954;9.506;2023-07-09T15:34:50;9.98;;;4.60;;
29314;SDS011;16320;53.954;9.506;2023-07-09T15:37:54;5.82;;;4.18;;
29314;SDS011;16320;53.954;9.506;2023-07-09T15:40:59;5.50;;;4.68;;
29314;SDS011;16320;53.954;9.506;2023-07-09T15:44:03;7.57;;;4.70;;
29314;SDS011;16320;53.954;9.506;2023-07-09T15:47:16;6.65;;;4.00;;
29314;SDS011;16320;53.954;9.506;2023-07-09T15:50:27;7.88;;;4.65;;
29314;SDS011;16320;53.954;9.506;2023-07-09T15:53:38;5.90;;;4.00;;
29314;SDS011;16320;53.954;9.506;2023-07-09T15:56:42;5.35;;;4.40;;
29314;SDS011;16320;53.954;9.506;2023-07-09T15:59:49;7.10;;;4.45;;
29314;SDS011;16320;53.954;9.506;2023-07-09T16:02:53;7.72;;;4.10;;
29314;SDS011;16320;53.954;9.506;2023-07-09T16:06:18;7.95;;;4.05;;
29314;SDS011;16320;53.954;9.506;2023-07-09T16:09:23;10.57;;;4.50;;
29314;SDS011;16320;53.954;9.506;2023-07-09T16:12:28;5.65;;;4.10;;
29314;SDS011;16320;53.954;9.506;2023-07-09T16:15:34;6.55;;;4.05;;
29314;SDS011;16320;53.954;9.506;2023-07-09T16:18:38;6.78;;;4.80;;
29314;SDS011;16320;53.954;9.506;2023-07-09T16:21:43;5.97;;;4.70;;
29314;SDS011;16320;53.954;9.506;2023-07-09T16:24:49;5.95;;;4.35;;
29314;SDS011;16320;53.954;9.506;2023-07-09T16:27:53;5.10;;;4.05;;
29314;SDS011;16320;53.954;9.506;2023-07-09T16:30:58;5.53;;;4.50;;
29314;SDS011;16320;53.954;9.506;2023-07-09T16:34:02;7.68;;;5.32;;
29314;SDS011;16320;53.954;9.506;2023-07-09T16:37:12;8.82;;;4.97;;
29314;SDS011;16320;53.954;9.506;2023-07-09T16:40:27;7.13;;;4.57;;
29314;SDS011;16320;53.954;9.506;2023-07-09T16:43:35;6.70;;;4.55;;
29314;SDS011;16320;53.954;9.506;2023-07-09T16:46:39;5.15;;;4.35;;
29314;SDS011;16320;53.954;9.506;2023-07-09T16:49:44;6.85;;;4.68;;
29314;SDS011;16320;53.954;9.506;2023-07-09T16:52:51;6.30;;;4.30;;
29314;SDS011;16320;53.954;9.506;2023-07-09T16:55:58;9.43;;;4.63;;
29314;SDS011;16320;53.954;9.506;2023-07-09T16:59:02;6.25;;;4.75;;
29314;SDS011;16320;53.954;9.506;2023-07-09T17:02:14;6.68;;;4.40;;
29314;SDS011;16320;53.954;9.506;2023-07-09T17:05:30;9.75;;;4.80;;
29314;SDS011;16320;53.954;9.506;2023-07-09T17:08:35;6.60;;;4.60;;
29314;SDS011;16320;53.954;9.506;2023-07-09T17:11:39;5.38;;;4.50;;
29314;SDS011;16320;53.954;9.506;2023-07-09T17:14:43;10.93;;;5.32;;
29314;SDS011;16320;53.954;9.506;2023-07-09T17:17:49;7.13;;;4.90;;
29314;SDS011;16320;53.954;9.506;2023-07-09T17:20:57;5.00;;;4.47;;
29314;SDS011;16320;53.954;9.506;2023-07-09T17:27:38;8.25;;;4.75;;
29314;SDS011;16320;53.954;9.506;2023-07-09T17:30:43;6.25;;;4.60;;
29314;SDS011;16320;53.954;9.506;2023-07-09T17:33:49;6.53;;;4.82;;
29314;SDS011;16320;53.954;9.506;2023-07-09T17:36:54;7.90;;;4.82;;
29314;SDS011;16320;53.954;9.506;2023-07-09T17:39:59;6.90;;;4.78;;
29314;SDS011;16320;53.954;9.506;2023-07-09T17:43:15;6.40;;;4.75;;
29314;SDS011;16320;53.954;9.506;2023-07-09T17:46:28;7.57;;;4.72;;
29314;SDS011;16320;53.954;9.506;2023-07-09T17:49:33;7.10;;;4.32;;
29314;SDS011;16320;53.954;9.506;2023-07-09T17:52:38;6.47;;;4.28;;
29314;SDS011;16320;53.954;9.506;2023-07-09T17:55:44;8.55;;;4.78;;
29314;SDS011;16320;53.954;9.506;2023-07-09T17:58:50;6.18;;;4.78;;
29314;SDS011;16320;53.954;9.506;2023-07-09T18:01:57;5.43;;;3.83;;
29314;SDS011;16320;53.954;9.506;2023-07-09T18:05:16;7.50;;;4.25;;
29314;SDS011;16320;53.954;9.506;2023-07-09T18:08:27;8.35;;;4.22;;
29314;SDS011;16320;53.954;9.506;2023-07-09T18:11:31;6.13;;;3.42;;
29314;SDS011;16320;53.954;9.506;2023-07-09T18:14:42;6.20;;;3.40;;
29314;SDS011;16320;53.954;9.506;2023-07-09T18:17:50;5.10;;;3.38;;
29314;SDS011;16320;53.954;9.506;2023-07-09T18:20:55;6.47;;;3.58;;
29314;SDS011;16320;53.954;9.506;2023-07-09T18:24:00;4.90;;;3.53;;
29314;SDS011;16320;53.954;9.506;2023-07-09T18:27:12;5.53;;;2.90;;
29314;SDS011;16320;53.954;9.506;2023-07-09T18:30:31;7.60;;;3.50;;
29314;SDS011;16320;53.954;9.506;2023-07-09T18:33:38;6.50;;;3.08;;
29314;SDS011;16320;53.954;9.506;2023-07-09T18:36:43;11.90;;;3.60;;
29314;SDS011;16320;53.954;9.506;2023-07-09T18:39:48;5.35;;;3.22;;
29314;SDS011;16320;53.954;9.506;2023-07-09T18:42:54;7.30;;;3.20;;
29314;SDS011;16320;53.954;9.506;2023-07-09T18:46:00;3.53;;;2.58;;
29314;SDS011;16320;53.954;9.506;2023-07-09T18:49:08;4.80;;;2.55;;
29314;SDS011;16320;53.954;9.506;2023-07-09T18:52:16;4.93;;;3.38;;
29314;SDS011;16320;53.954;9.506;2023-07-09T18:55:25;7.57;;;3.10;;
29314;SDS011;16320;53.954;9.506;2023-07-09T18:58:31;4.90;;;2.60;;
29314;SDS011;16320;53.954;9.506;2023-07-09T19:01:39;6.57;;;3.00;;
29314;SDS011;16320;53.954;9.506;2023-07-09T19:04:44;3.83;;;2.63;;
29314;SDS011;16320;53.954;9.506;2023-07-09T19:07:52;3.72;;;2.83;;
29314;SDS011;16320;53.954;9.506;2023-07-09T19:10:58;5.47;;;2.50;;
29314;SDS011;16320;53.954;9.506;2023-07-09T19:14:05;6.03;;;2.72;;
29314;SDS011;16320;53.954;9.506;2023-07-09T19:17:11;3.97;;;2.45;;
29314;SDS011;16320;53.954;9.506;2023-07-09T19:20:22;4.30;;;2.72;;
29314;SDS011;16320;53.954;9.506;2023-07-09T19:23:28;5.20;;;2.40;;
29314;SDS011;16320;53.954;9.506;2023-07-09T19:26:34;10.93;;;2.60;;
29314;SDS011;16320;53.954;9.506;2023-07-09T19:29:38;6.70;;;2.58;;
29314;SDS011;16320;53.954;9.506;2023-07-09T19:32:49;9.15;;;2.35;;
29314;SDS011;16320;53.954;9.506;2023-07-09T19:35:58;3.47;;;2.85;;
29314;SDS011;16320;53.954;9.506;2023-07-09T19:39:02;4.60;;;2.80;;